Home > Products > Valid Products > TAF

000
FTUS42 KMLB 201700
TAFMLB
TAF
KMLB 201725Z 2018/2118 08010KT P6SM SCT050 SCT250
     FM210300 19005KT P6SM FEW250
     FM211600 13007KT P6SM FEW040 FEW250=



000
FTUS42 KMLB 201700
TAFMCO
TAF
KMCO 201725Z 2018/2118 26006KT P6SM SCT050 SCT250
     FM210100 22003KT P6SM FEW250
     FM211400 25005KT P6SM FEW040 FEW250=



000
FTUS42 KMLB 201700
TAFSFB
TAF
KSFB 201725Z 2018/2118 29007KT P6SM SCT050 SCT250
     FM210100 22003KT P6SM FEW250
     FM211400 25005KT P6SM FEW040 FEW250=



000
FTUS42 KMLB 201700
TAFDAB
TAF
KDAB 201725Z 2018/2118 28005KT P6SM FEW040 FEW250
     FM202100 13007KT P6SM VCTS SCT050CB SCT250
     FM210200 VRB03KT P6SM FEW250
     FM211400 26006KT P6SM FEW040 FEW250=



000
FTUS42 KMLB 201700
TAFVRB
TAF
KVRB 201725Z 2018/2118 08010KT P6SM VCSH SCT040 SCT250
     FM210200 19003KT P6SM FEW250
     FM211500 08008KT P6SM FEW040 FEW250=



000
FTUS42 KMLB 201500 AAA
TAFMCO
TAF AMD
KMCO 201523Z 2015/2112 29007KT P6SM SCT035 SCT250
     FM210000 22005KT P6SM FEW060 FEW250=



000
FTUS42 KMLB 201100
TAFMCO
TAF
KMCO 201128Z 2012/2112 VRB03KT P6SM FEW250
     FM201500 29007KT P6SM SCT040 SCT250
     FM210000 22005KT P6SM FEW060 FEW250=



000
FTUS42 KMLB 201100
TAFMLB
TAF
KMLB 201128Z 2012/2112 22004KT P6SM FEW250
     FM201400 30005KT P6SM SCT040 SCT250
     FM201800 09008KT P6SM SCT050 SCT250
     FM210200 16005KT P6SM FEW250=



000
FTUS42 KMLB 201100
TAFSFB
TAF
KSFB 201128Z 2012/2112 VRB03KT P6SM FEW250
     FM201500 29007KT P6SM SCT040 SCT250
     FM210000 22005KT P6SM FEW060 FEW250=



000
FTUS42 KMLB 201100
TAFDAB
TAF
KDAB 201128Z 2012/2112 VRB03KT P6SM FEW250
     FM201500 27007KT P6SM SCT040 SCT250
     FM202000 12008KT P6SM VCTS SCT050CB SCT250
     FM210000 22005KT P6SM FEW060 FEW250=



000
FTUS42 KMLB 201100
TAFVRB
TAF
KVRB 201128Z 2012/2112 22004KT P6SM FEW250
     FM201400 30005KT P6SM SCT040 SCT250
     FM201700 09008KT P6SM SCT050 SCT250
     FM210200 16005KT P6SM FEW250=



000
FTUS42 KMLB 200800 AAA
TAFMCO
TAF AMD
KMCO 200852Z 2009/2106 32003KT P6SM FEW250
     FM201500 29007KT P6SM SCT040 SCT250
     FM210000 22005KT P6SM FEW060 FEW250=



000
FTUS42 KMLB 200500
TAFSFB
TAF
KSFB 200539Z 2006/2106 26003KT P6SM FEW250
     FM201500 29007KT P6SM SCT040 SCT250
     FM210000 22005KT P6SM FEW060 FEW250=



000
FTUS42 KMLB 200500
TAFMLB
TAF
KMLB 200539Z 2006/2106 22004KT P6SM FEW250
     FM201400 30005KT P6SM SCT040 SCT250
     FM201800 09008KT P6SM SCT050 SCT250
     FM210200 16005KT P6SM FEW250=



000
FTUS42 KMLB 200500
TAFMCO
TAF
KMCO 200539Z 2006/2106 25003KT P6SM FEW250
     FM201500 29007KT P6SM SCT040 SCT250
     FM210000 22005KT P6SM FEW060 FEW250=



000
FTUS42 KMLB 200500
TAFDAB
TAF
KDAB 200539Z 2006/2106 26003KT P6SM FEW250
     FM201500 27007KT P6SM SCT040 SCT250
     FM202000 12008KT P6SM VCTS SCT050CB SCT250
     FM210000 22005KT P6SM FEW060 FEW250=



000
FTUS42 KMLB 200500
TAFVRB
TAF
KVRB 200539Z 2006/2106 22004KT P6SM FEW250
     FM201400 30005KT P6SM SCT040 SCT250
     FM201700 09008KT P6SM SCT050 SCT250
     FM210200 16005KT P6SM FEW250=



000
FTUS42 KMLB 200200 AAA
TAFMCO
TAF AMD
KMCO 200250Z 2003/2024 24003KT P6SM FEW250
     FM201500 29005KT P6SM SCT040 SCT250=



000
FTUS42 KMLB 192300
TAFMLB
TAF
KMLB 192335Z 2000/2024 14012KT P6SM BKN250
     FM200200 22003KT P6SM FEW250
     FM201400 30005KT P6SM SCT040 SCT250
     FM201800 11005KT P6SM SCT040=



000
FTUS42 KMLB 192300
TAFVRB
TAF
KVRB 192335Z 2000/2024 14009KT P6SM BKN250
     FM200200 VRB03KT P6SM FEW250
     FM201400 28005KT P6SM SCT040 SCT250
     FM201800 11005KT P6SM SCT040=



000
FTUS42 KMLB 192300
TAFDAB
TAF
KDAB 192335Z 2000/2024 17005KT P6SM FEW050 SCT250
     FM200100 22003KT P6SM FEW250
     FM201500 27005KT P6SM SCT040 SCT250
     FM202100 14005KT P6SM VCTS SCT040CB=



000
FTUS42 KMLB 192300
TAFSFB
TAF
KSFB 192335Z 2000/2024 27010KT P6SM BKN250
     FM200200 25004KT P6SM FEW250
     FM201500 28006KT P6SM SCT040 SCT250=



000
FTUS42 KMLB 192300
TAFMCO
TAF
KMCO 192335Z 2000/2024 28004KT P6SM FEW070 BKN250
     FM200200 24003KT P6SM FEW250
     FM201500 29005KT P6SM SCT040 SCT250=



000
FTUS42 KMLB 192100 AAA
TAFDAB
TAF AMD
KDAB 192102Z 1921/2018 27005KT P6SM VCTS SCT040CB SCT060 BKN250
     FM192200 22005KT P6SM FEW040 SCT060 SCT250
     FM200100 22003KT P6SM FEW250
     FM201500 27005KT P6SM SCT040 SCT250=



000
FTUS42 KMLB 192000 AAA
TAFMCO
TAF AMD
KMCO 192059Z 1921/2018 27007KT P6SM SCT060 SCT250
     FM200100 24003KT P6SM FEW250
     FM201500 29005KT P6SM SCT040 SCT250=



000
FTUS42 KMLB 191700
TAFDAB
TAF
KDAB 191735Z 1918/2018 25006KT P6SM SCT035 SCT250
     FM191900 19005KT P6SM VCTS SCT040CB SCT250
     FM200100 22003KT P6SM FEW250
     FM201500 27005KT P6SM SCT040 SCT250=



000
FTUS42 KMLB 191700
TAFSFB
TAF
KSFB 191735Z 1918/2018 28006KT P6SM SCT050 SCT250
     FM200100 25004KT P6SM FEW250
     FM201500 30006KT P6SM SCT040 SCT250=



000
FTUS42 KMLB 191700
TAFMLB
TAF
KMLB 191735Z 1918/2018 25008KT P6SM SCT040 SCT250
     FM191900 11009KT P6SM SCT050
     FM200100 22003KT P6SM FEW250
     FM201400 30005KT P6SM SCT040 SCT250=



000
FTUS42 KMLB 191700
TAFVRB
TAF
KVRB 191735Z 1918/2018 28006KT P6SM SCT035 SCT250
     FM191900 12010KT P6SM SCT050 SCT250
     FM200100 VRB03KT P6SM FEW250
     FM201400 28005KT P6SM SCT040 SCT250=



000
FTUS42 KMLB 191700
TAFMCO
TAF
KMCO 191735Z 1918/2018 28007KT P6SM SCT050 SCT250
     FM200100 24003KT P6SM FEW250
     FM201500 29005KT P6SM SCT040 SCT250=



000
FTUS42 KMLB 191400 AAA
TAFMCO
TAF AMD
KMCO 191458Z 1915/2012 26006KT P6SM SCT025 SCT250
     FM191900 24009KT P6SM SCT050 SCT250
     FM200200 24004KT P6SM FEW250=



000
FTUS42 KMLB 191100
TAFVRB
TAF
KVRB 191127Z 1912/2012 30004KT P6SM SKC
     FM191400 25006KT P6SM FEW025
     FM191800 10008KT P6SM SCT040
     FM200200 19005KT P6SM FEW250=



000
FTUS42 KMLB 191100
TAFMLB
TAF
KMLB 191127Z 1912/2012 25003KT P6SM SKC
     FM191400 24006KT P6SM FEW025
     FM191800 11008KT P6SM SCT040
     FM200200 21005KT P6SM FEW250=



000
FTUS42 KMLB 191100
TAFMCO
TAF
KMCO 191127Z 1912/2012 20004KT P6SM FEW040 FEW250
     FM191400 26006KT P6SM FEW030
     FM191900 24009KT P6SM SCT050 SCT250
     FM200200 24004KT P6SM FEW250=



000
FTUS42 KMLB 191100
TAFDAB
TAF
KDAB 191127Z 1912/2012 19003KT P6SM FEW030 FEW250
     FM191400 26008KT P6SM FEW030
     FM191800 24008KT P6SM SCT050
     FM200000 21005KT P6SM FEW050 SCT250=



000
FTUS42 KMLB 191100
TAFSFB
TAF
KSFB 191127Z 1912/2012 26004KT P6SM SKC
     FM191400 27006KT P6SM FEW025
     FM191900 25009KT P6SM SCT050 SCT250
     FM200200 21006KT P6SM FEW250=



000
FTUS42 KMLB 190900 AAA
TAFMCO
TAF AMD
KMCO 190901Z 1909/2006 VRB03KT P6SM FEW040 FEW250
     FM191400 26006KT P6SM FEW025
     FM191900 24009KT P6SM SCT050 SCT250
     FM200200 24004KT P6SM FEW250=



000
FTUS42 KMLB 190500 RRA
TAFVRB
TAF
KVRB 190543Z 1906/2006 19004KT P6SM SCT250
     FM191400 25006KT P6SM FEW025
     FM191800 10008KT P6SM SCT040
     FM200200 19005KT P6SM FEW250=



000
FTUS42 KMLB 190500 RRA
TAFDAB
TAF
KDAB 190543Z 1906/2006 21003KT P6SM SCT250
     FM191400 26008KT P6SM FEW025
     FM191800 24008KT P6SM SCT050
     FM200000 21005KT P6SM FEW050 SCT250=



000
FTUS42 KMLB 190500 RRA
TAFMLB
TAF
KMLB 190543Z 1906/2006 22005KT P6SM SCT250
     FM191400 24006KT P6SM FEW025
     FM191800 11008KT P6SM SCT040
     FM200200 21005KT P6SM FEW250=



000
FTUS42 KMLB 190500 RRA
TAFMCO
TAF
KMCO 190543Z 1906/2006 VRB03KT P6SM FEW250
     FM191400 26006KT P6SM FEW025
     FM191900 24009KT P6SM SCT050 SCT250
     FM200200 24004KT P6SM FEW250=



000
FTUS42 KMLB 190500 RRA
TAFSFB
TAF
KSFB 190543Z 1906/2006 21003KT P6SM FEW250
     FM191400 27006KT P6SM FEW025
     FM191900 25009KT P6SM SCT050 SCT250
     FM200200 21006KT P6SM FEW250=



000
FTUS42 KMLB 190300 AAA
TAFMCO
TAF AMD
KMCO 190309Z 1903/1924 VRB03KT P6SM FEW140 SCT250
     FM191400 26006KT P6SM SCT025
     FM191800 27008KT P6SM SCT035=



000
FTUS42 KMLB 182300
TAFMLB
TAF
KMLB 182333Z 1900/1924 20007KT P6SM SCT030 SCT250
     FM191400 24006KT P6SM SCT025
     FM191800 24008KT P6SM SCT035
     FM192000 14008KT P6SM VCTS SCT030CB=



000
FTUS42 KMLB 182300
TAFDAB
TAF
KDAB 182333Z 1900/1924 22005KT P6SM FEW030 SCT250
     FM191400 26006KT P6SM SCT025
     FM191800 24008KT P6SM SCT035
     FM192100 17008KT P6SM VCTS SCT030CB=



000
FTUS42 KMLB 182300
TAFVRB
TAF
KVRB 182333Z 1900/1924 14003KT P6SM SCT030 SCT250
     FM191400 25006KT P6SM SCT025
     FM191800 13008KT P6SM SCT035
     FM191900 11008KT P6SM VCTS SCT030CB BKN250=



000
FTUS42 KMLB 182300
TAFSFB
TAF
KSFB 182333Z 1900/1924 00000KT P6SM FEW050 SCT250
     FM191400 27006KT P6SM SCT025
     FM191800 27008KT P6SM SCT035=



000
FTUS42 KMLB 182300
TAFMCO
TAF
KMCO 182333Z 1900/1924 25005KT P6SM SCT050 SCT250
     FM191400 26006KT P6SM SCT025
     FM191800 27008KT P6SM SCT035=



000
FTUS42 KMLB 182000 AAB
TAFMCO
TAF AMD
KMCO 182052Z 1821/1918 25009KT P6SM VCTS SCT050CB SCT250
     FM182300 21005KT P6SM FEW060 SCT250
     FM191400 26006KT P6SM SCT025=



000
FTUS42 KMLB 181900 AAA
TAFSFB
TAF AMD
KSFB 181956Z 1820/1918 25011KT P6SM VCTS SCT050CB BKN250
     FM182300 23005KT P6SM FEW060 SCT250
     FM191400 27006KT P6SM SCT025=



000
FTUS42 KMLB 181900 AAA
TAFMCO
TAF AMD
KMCO 181923Z 1819/1918 24008KT P6SM VCTS SCT050CB SCT250
      TEMPO 1819/1821 VRB15G25KT TSRA BKN050CB
     FM182300 21005KT P6SM FEW060 SCT250
     FM191400 26006KT P6SM SCT025=



000
FTUS42 KMLB 181700
TAFDAB
TAF
KDAB 181733Z 1818/1918 23007KT P6SM VCSH SCT045
      TEMPO 1819/1821 3SM TSRA BKN025CB
     FM182100 27006KT P6SM SCT050 BKN250
     FM190000 22004KT P6SM FEW060 SCT250
     FM191400 26006KT P6SM SCT025=



000
FTUS42 KMLB 181700
TAFVRB
TAF
KVRB 181733Z 1818/1918 09008KT P6SM VCSH SCT040 SCT250
     FM182100 11008KT P6SM VCTS SCT040CB BKN250
     FM190100 19004KT P6SM SCT250
     FM191400 25006KT P6SM SCT025=



000
FTUS42 KMLB 181700
TAFMLB
TAF
KMLB 181733Z 1818/1918 09008KT P6SM VCSH SCT040 SCT250
     FM182100 11008KT P6SM VCTS SCT040CB BKN250
     FM190100 19004KT P6SM SCT250
     FM191400 26006KT P6SM SCT025=



000
FTUS42 KMLB 181700
TAFMCO
TAF
KMCO 181733Z 1818/1918 24006KT P6SM SCT045
     FM181900 24008KT P6SM VCTS SCT050CB SCT250
     FM182300 21005KT P6SM FEW060 SCT250
     FM191400 26006KT P6SM SCT025=



000
FTUS42 KMLB 181700
TAFSFB
TAF
KSFB 181733Z 1818/1918 25006KT P6SM SCT045
     FM181900 25008KT P6SM SCT050 SCT250
     FM182300 23005KT P6SM FEW060 SCT250
     FM191400 27006KT P6SM SCT025=



000
FTUS42 KMLB 181500 AAA
TAFMCO
TAF AMD
KMCO 181502Z 1815/1912 26005KT P6SM SCT030
     FM181900 24008KT P6SM SCT050 SCT250
     FM190000 24004KT P6SM FEW060 SCT250=



000
FTUS42 KMLB 181100
TAFDAB
TAF
KDAB 181128Z 1812/1912 00000KT P6SM FEW250
     FM181400 26007KT P6SM SCT025
     FM181900 22008KT P6SM SCT050 SCT250
     FM190000 22004KT P6SM FEW060 SCT250=



000
FTUS42 KMLB 181100
TAFMLB
TAF
KMLB 181128Z 1812/1912 24004KT P6SM FEW250
     FM181400 24006KT P6SM SCT025
     FM181800 12008KT P6SM VCTS SCT040CB SCT250
     FM190200 20004KT P6SM SCT250=



000
FTUS42 KMLB 181100
TAFMCO
TAF
KMCO 181128Z 1812/1912 VRB03KT P6SM SKC
     FM181400 26005KT P6SM SCT025
     FM181900 24008KT P6SM SCT050 SCT250
     FM190000 24004KT P6SM FEW060 SCT250=



000
FTUS42 KMLB 181100
TAFSFB
TAF
KSFB 181128Z 1812/1912 VRB03KT P6SM SKC
     FM181400 26006KT P6SM SCT025
     FM181800 24008KT P6SM SCT050 SCT250
     FM190000 23004KT P6SM FEW060 SCT250=



000
FTUS42 KMLB 181100
TAFVRB
TAF
KVRB 181128Z 1812/1912 21004KT P6SM FEW250
     FM181400 22006KT P6SM SCT025
     FM181700 11008KT P6SM VCTS SCT040CB SCT250
     FM190200 18005KT P6SM SCT250=



000
FTUS42 KMLB 180900 AAA
TAFMCO
TAF AMD
KMCO 180904Z 1809/1906 VRB03KT P6SM FEW250
     FM181400 26005KT P6SM SCT025 SCT250
     FM181900 24008KT P6SM SCT050 SCT250
     FM190000 24004KT P6SM FEW060 SCT250=



000
FTUS42 KMLB 180500 RRA
TAFSFB
TAF
KSFB 180541Z 1806/1906 21004KT P6SM FEW250
     FM181400 26006KT P6SM SCT025 SCT250
     FM181800 24008KT P6SM SCT050 SCT250
     FM190000 23004KT P6SM FEW060 SCT250=



000
FTUS42 KMLB 180500 RRA
TAFDAB
TAF
KDAB 180541Z 1806/1906 22003KT P6SM FEW030 SCT250
     FM181400 26007KT P6SM SCT025 SCT250
     FM181900 22008KT P6SM SCT050 SCT250
     FM190000 22004KT P6SM FEW060 SCT250=



000
FTUS42 KMLB 180500 RRA
TAFVRB
TAF
KVRB 180541Z 1806/1906 22004KT P6SM SCT250
     FM181400 22006KT P6SM SCT025 SCT250
     FM181700 11008KT P6SM SCT040 SCT250
     FM190200 18005KT P6SM SCT250=



000
FTUS42 KMLB 180500 RRA
TAFMCO
TAF
KMCO 180541Z 1806/1906 20003KT P6SM FEW250
     FM181400 26005KT P6SM SCT025 SCT250
     FM181900 24008KT P6SM SCT050 SCT250
     FM190000 24004KT P6SM FEW060 SCT250=



000
FTUS42 KMLB 180500 RRA
TAFMLB
TAF
KMLB 180541Z 1806/1906 20006KT P6SM SCT250
     FM181400 24006KT P6SM SCT025 SCT250
     FM181800 12008KT P6SM SCT040 SCT250
     FM190200 20004KT P6SM SCT250=



000
FTUS42 KMLB 180200 AAA
TAFMCO
TAF AMD
KMCO 180251Z 1803/1824 VRB03KT P6SM FEW050 BKN250
     FM181400 24005KT P6SM FEW025 SCT250
     FM181900 23008KT P6SM VCTS SCT035CB SCT250=



000
FTUS42 KMLB 180100 AAA
TAFDAB
TAF AMD
KDAB 180133Z 1802/1824 16006KT P6SM VCTS FEW040CB SCT250
     FM180300 VRB03KT P6SM SCT250
     FM181400 25007KT P6SM FEW030 SCT250
     FM181900 20008KT P6SM VCTS SCT040CB SCT250=



000
FTUS42 KMLB 172300
TAFMCO
TAF
KMCO 172320Z 1800/1824 16006KT P6SM FEW025 SCT050 BKN100
     FM180300 21003KT P6SM FEW120 BKN250
     FM181400 24006KT P6SM FEW025 SCT250
     FM181800 23008KT P6SM VCTS SCT035CB SCT250=



000
FTUS42 KMLB 172300
TAFMLB
TAF
KMLB 172320Z 1800/1824 13010KT P6SM FEW040 BKN250
     FM180300 23003KT P6SM SCT250
     FM181400 24006KT P6SM FEW030 SCT250
     FM181800 14008KT P6SM VCTS SCT040CB SCT250=



000
FTUS42 KMLB 172300
TAFSFB
TAF
KSFB 172320Z 1800/1824 27005KT P6SM FEW025 SCT060 BKN250
     FM180300 24003KT P6SM FEW120 SCT250
     FM181400 26007KT P6SM FEW025 SCT250
     FM181800 24008KT P6SM VCTS SCT035CB SCT250=



000
FTUS42 KMLB 172300
TAFVRB
TAF
KVRB 172320Z 1800/1824 13010KT P6SM FEW040 SCT120 BKN250
     FM180300 24003KT P6SM BKN250
     FM181400 22006KT P6SM FEW030 SCT250
     FM181700 12008KT P6SM SCT040 SCT250=



000
FTUS42 KMLB 172300
TAFDAB
TAF
KDAB 172320Z 1800/1824 16006KT P6SM FEW040 SCT250
     FM180300 VRB03KT P6SM SCT250
     FM181400 25007KT P6SM FEW030 SCT250
     FM181900 20008KT P6SM VCTS SCT040CB SCT250=



000
FTUS42 KMLB 172200 AAB
TAFMCO
TAF AMD
KMCO 172210Z 1722/1818 17015G30KT 2SM TSRA BKN020CB OVC040
     FM172245 19007KT P6SM FEW040 SCT120 BKN250
     FM180100 21003KT P6SM FEW120 SCT250
     FM181400 25005KT P6SM SCT025=



000
FTUS42 KMLB 172100 AAA
TAFMCO
TAF AMD
KMCO 172129Z 1721/1818 18015G25KT P6SM VCTS SCT050CB SCT250
      TEMPO 1721/1722 3SM TSRA BKN020CB OVC050
     FM172200 23007KT P6SM VCSH SCT045 BKN250
     FM172300 20005KT P6SM FEW040 SCT120 BKN250
     FM181400 25005KT P6SM SCT025=



    US Dept of Commerce
    National Oceanic and Atmospheric Administration
    National Weather Service
    1325 East West Highway
    Silver Spring, MD 20910
    Page Author: NWS Internet Services Team
Disclaimer
Information Quality
Credits
Glossary
Privacy Policy
Freedom of Information Act (FOIA)
About Us
Career Opportunities